createdAt,value
2017-04-07T00:02:55.577Z,8.34
2017-04-07T00:07:51.772Z,8.26
2017-04-07T00:12:48.386Z,8.28
2017-04-07T00:17:45.377Z,8.30
2017-04-07T00:22:41.828Z,8.27
2017-04-07T00:27:38.303Z,8.09
2017-04-07T00:32:34.629Z,8.05
2017-04-07T00:37:31.181Z,7.77
2017-04-07T00:42:27.469Z,7.69
2017-04-07T00:47:24.181Z,7.54
2017-04-07T00:52:20.496Z,7.51
2017-04-07T00:57:16.840Z,7.57
2017-04-07T01:02:13.334Z,7.53
2017-04-07T01:07:09.641Z,7.54
2017-04-07T01:12:06.156Z,7.50
2017-04-07T01:17:05.150Z,7.38
2017-04-07T01:22:00.903Z,7.42
2017-04-07T01:26:58.349Z,7.20
2017-04-07T01:31:54.793Z,7.17
2017-04-07T01:36:51.330Z,7.38
2017-04-07T01:41:47.700Z,7.28
2017-04-07T01:46:44.939Z,7.51
2017-04-07T01:51:41.546Z,7.63
2017-04-07T01:56:38.123Z,7.87
2017-04-07T02:26:50.501Z,7.94
2017-04-07T02:31:46.536Z,8.03
2017-04-07T02:36:42.791Z,8.03
2017-04-07T02:41:39.219Z,8.00
2017-04-07T02:46:35.674Z,8.08
2017-04-07T02:51:32.126Z,8.24
2017-04-07T02:56:28.484Z,8.20
2017-04-07T03:01:25.219Z,8.03
2017-04-07T03:06:21.622Z,8.20
2017-04-07T03:11:17.852Z,8.31
2017-04-07T03:16:14.625Z,8.20
2017-04-07T03:21:10.943Z,8.28
2017-04-07T03:26:07.288Z,8.37
2017-04-07T03:31:04.101Z,8.31
2017-04-07T03:36:00.423Z,8.24
2017-04-07T03:40:57.356Z,8.42
2017-04-07T03:45:53.488Z,8.44
2017-04-07T03:50:50.826Z,8.34
2017-04-07T03:55:47.405Z,8.41
2017-04-07T04:00:43.994Z,8.31
2017-04-07T04:05:40.424Z,8.44
2017-04-07T04:10:37.726Z,8.30
2017-04-07T04:15:34.167Z,8.46
2017-04-07T04:20:30.744Z,8.45
2017-04-07T04:25:27.024Z,8.31
2017-04-07T04:30:24.124Z,8.26
2017-04-07T04:35:21.309Z,8.33
2017-04-07T04:40:18.401Z,8.49
2017-04-07T04:45:14.881Z,8.52
2017-04-07T04:50:11.449Z,8.38
2017-04-07T04:55:09.796Z,8.52
2017-04-07T05:00:05.987Z,8.30
2017-04-07T05:05:02.459Z,8.33
2017-04-07T05:09:58.911Z,8.38
2017-04-07T05:14:55.331Z,8.46
2017-04-07T05:19:54.580Z,8.44
2017-04-07T05:24:50.461Z,8.46
2017-04-07T05:29:46.945Z,8.53
2017-04-07T05:34:44.452Z,8.56
2017-04-07T05:39:40.974Z,8.73
2017-04-07T05:44:37.410Z,8.63
2017-04-07T05:49:33.910Z,8.70
2017-04-07T05:54:32.387Z,8.73
2017-04-07T05:59:28.776Z,8.76
2017-04-07T06:04:25.287Z,8.69
2017-04-07T06:09:21.860Z,8.67
2017-04-07T06:14:18.275Z,8.91
2017-04-07T06:19:14.805Z,8.94
2017-04-07T06:24:11.185Z,9.00
2017-04-07T06:29:07.908Z,9.11
2017-04-07T06:34:04.471Z,9.14
2017-04-07T06:39:01.152Z,9.32
2017-04-07T06:43:57.836Z,9.25
2017-04-07T06:48:54.472Z,9.26
2017-04-07T06:53:51.000Z,9.31
2017-04-07T06:58:47.422Z,9.48
2017-04-07T07:03:44.543Z,9.44
2017-04-07T07:08:41.108Z,9.43
2017-04-07T07:13:37.281Z,9.59
2017-04-07T07:18:33.862Z,9.55
2017-04-07T07:23:32.049Z,9.46
2017-04-07T07:28:28.418Z,9.46
2017-04-07T07:33:25.164Z,9.50
2017-04-07T07:38:21.445Z,9.48
2017-04-07T07:43:17.774Z,9.54
2017-04-07T07:48:14.161Z,9.74
2017-04-07T07:53:11.435Z,9.84
2017-04-07T07:58:08.878Z,9.99
2017-04-07T08:03:05.469Z,9.98
2017-04-07T08:08:01.655Z,10.07
2017-04-07T08:12:58.106Z,10.10
2017-04-07T08:17:54.627Z,10.30
2017-04-07T08:22:51.580Z,10.38
2017-04-07T08:27:48.561Z,10.38
2017-04-07T08:32:45.299Z,10.49
2017-04-07T08:37:41.753Z,10.49
2017-04-07T08:42:38.079Z,10.57
2017-04-07T08:47:34.723Z,10.75
2017-04-07T08:52:31.228Z,10.84
2017-04-07T08:57:28.887Z,10.84
2017-04-07T09:02:25.996Z,10.78
2017-04-07T09:07:22.803Z,10.96
2017-04-07T09:12:19.901Z,10.96
2017-04-07T09:17:16.248Z,11.08
2017-04-07T09:22:12.967Z,11.19
2017-04-07T09:27:09.770Z,11.33
2017-04-07T09:32:07.862Z,11.44
2017-04-07T09:37:04.317Z,11.36
2017-04-07T09:42:00.964Z,11.54
2017-04-07T09:46:57.588Z,11.51
2017-04-07T09:51:54.963Z,11.70
2017-04-07T09:56:51.185Z,11.75
2017-04-07T10:01:48.014Z,11.91
2017-04-07T10:06:44.882Z,12.53
2017-04-07T10:11:41.633Z,13.05
2017-04-07T10:16:39.592Z,13.41
2017-04-07T10:21:37.195Z,14.03
2017-04-07T10:26:35.830Z,14.50
2017-04-07T10:31:32.050Z,14.04
2017-04-07T10:36:27.512Z,13.79
2017-04-07T10:41:24.457Z,13.99
2017-04-07T10:46:22.859Z,14.60
2017-04-07T10:51:18.646Z,14.44
2017-04-07T10:56:15.087Z,13.99
2017-04-07T11:01:11.892Z,14.36
2017-04-07T11:06:08.563Z,14.29
2017-04-07T11:11:04.728Z,14.55
2017-04-07T11:16:03.349Z,15.29
2017-04-07T11:21:01.679Z,15.43
2017-04-07T11:25:58.459Z,15.40
2017-04-07T11:30:55.664Z,15.67
2017-04-07T11:35:51.234Z,15.15
2017-04-07T11:40:46.905Z,15.00
2017-04-07T11:45:46.857Z,15.14
2017-04-07T11:50:43.428Z,15.03
2017-04-07T11:55:42.164Z,15.09
2017-04-07T12:00:37.320Z,14.43
2017-04-07T12:05:33.448Z,14.23
2017-04-07T12:10:29.307Z,14.08
2017-04-07T12:15:25.983Z,14.18
2017-04-07T12:20:22.563Z,14.29
2017-04-07T12:25:19.911Z,14.45
2017-04-07T12:30:18.757Z,14.91
2017-04-07T12:35:15.370Z,15.04
2017-04-07T12:40:12.235Z,15.00
2017-04-07T12:45:08.567Z,14.88
2017-04-07T12:50:05.139Z,14.91
2017-04-07T13:00:11.877Z,14.78
2017-04-07T13:05:07.607Z,14.69
2017-04-07T13:10:03.771Z,14.48
2017-04-07T13:15:01.593Z,14.44
2017-04-07T13:19:57.499Z,14.47
2017-04-07T13:24:54.122Z,14.45
2017-04-07T13:29:50.699Z,14.62
2017-04-07T13:34:48.828Z,14.58
2017-04-07T13:39:45.228Z,14.55
2017-04-07T13:44:42.032Z,14.47
2017-04-07T13:49:38.576Z,14.44
2017-04-07T13:54:35.204Z,14.37
2017-04-07T13:59:31.630Z,14.43
2017-04-07T14:04:27.957Z,14.33
2017-04-07T14:09:25.518Z,14.32
2017-04-07T14:14:22.173Z,14.44
2017-04-07T14:19:22.128Z,14.33
2017-04-07T14:24:17.684Z,14.32
2017-04-07T14:29:14.391Z,14.35
2017-04-07T14:34:19.792Z,14.37
2017-04-07T14:39:15.672Z,14.33
2017-04-07T14:44:12.106Z,14.54
2017-04-07T14:49:09.009Z,14.62
2017-04-07T14:54:06.008Z,14.58
2017-04-07T15:04:07.367Z,14.50
2017-04-07T15:09:03.978Z,14.50
2017-04-07T15:14:00.835Z,14.44
2017-04-07T15:18:56.946Z,14.51
2017-04-07T15:23:53.696Z,14.43
2017-04-07T15:28:50.425Z,14.55
2017-04-07T15:33:48.795Z,14.40
2017-04-07T15:38:45.015Z,14.43
2017-04-07T15:43:41.418Z,14.41
2017-04-07T15:48:37.595Z,14.43
2017-04-07T15:53:34.099Z,14.33
2017-04-07T16:03:30.752Z,14.30
2017-04-07T16:08:27.973Z,14.41
2017-04-07T16:13:24.949Z,14.36
2017-04-07T16:18:21.383Z,14.35
2017-04-07T16:23:17.890Z,14.35
2017-04-07T16:28:14.370Z,14.30
2017-04-07T16:33:10.841Z,14.33
2017-04-07T16:38:07.474Z,14.29
2017-04-07T16:43:05.130Z,14.32
2017-04-07T16:48:01.953Z,14.26
2017-04-07T16:52:59.694Z,14.29
2017-04-07T16:57:56.415Z,14.33
2017-04-07T17:02:52.909Z,14.25
2017-04-07T17:07:49.221Z,14.23
2017-04-07T17:12:45.684Z,14.17
2017-04-07T17:17:42.494Z,14.14
2017-04-07T17:22:39.486Z,14.04
2017-04-07T17:27:35.543Z,14.03
2017-04-07T17:32:32.013Z,13.97
2017-04-07T17:37:28.700Z,14.03
2017-04-07T17:42:25.461Z,13.99
2017-04-07T17:47:22.035Z,13.97
2017-04-07T17:52:18.551Z,13.97
2017-04-07T17:57:15.000Z,13.89
2017-04-07T18:02:11.414Z,13.83
2017-04-07T18:07:09.081Z,13.81
2017-04-07T18:12:05.808Z,13.93
2017-04-07T18:17:02.340Z,13.79
2017-04-07T18:21:58.894Z,13.92
2017-04-07T18:26:55.447Z,13.78
2017-04-07T18:31:51.567Z,13.81
2017-04-07T18:36:48.148Z,13.70
2017-04-07T18:41:44.507Z,13.63
2017-04-07T18:46:40.902Z,13.67
2017-04-07T18:51:37.936Z,13.63
2017-04-07T18:56:34.666Z,13.67
2017-04-07T19:01:31.197Z,13.56
2017-04-07T19:06:28.360Z,13.60
2017-04-07T19:11:25.279Z,13.54
2017-04-07T19:16:22.022Z,13.53
2017-04-07T19:21:18.328Z,13.59
2017-04-07T19:26:15.196Z,13.50
2017-04-07T19:31:11.361Z,13.44
2017-04-07T19:36:07.824Z,13.42
2017-04-07T19:41:04.295Z,13.44
2017-04-07T19:46:00.755Z,13.42
2017-04-07T19:50:57.272Z,13.37
2017-04-07T19:55:53.858Z,13.37
2017-04-07T20:00:50.442Z,13.44
2017-04-07T20:05:46.835Z,13.25
2017-04-07T20:10:43.322Z,13.27
2017-04-07T20:15:40.058Z,13.27
2017-04-07T20:20:36.365Z,13.25
2017-04-07T20:25:32.907Z,13.33
2017-04-07T20:30:29.692Z,13.19
2017-04-07T20:35:26.232Z,13.16
2017-04-07T20:40:22.670Z,13.18
2017-04-07T20:45:19.202Z,13.19
2017-04-07T20:50:15.270Z,13.11
2017-04-07T20:55:13.306Z,13.04
2017-04-07T21:00:09.470Z,13.00
2017-04-07T21:05:06.543Z,13.03
2017-04-07T21:10:03.007Z,13.08
2017-04-07T21:14:59.520Z,13.01
2017-04-07T21:19:56.055Z,12.93
2017-04-07T21:24:52.620Z,12.91
2017-04-07T21:29:48.843Z,12.87
2017-04-07T21:34:45.582Z,12.91
2017-04-07T21:39:42.436Z,12.97
2017-04-07T21:44:39.331Z,12.86
2017-04-07T21:49:35.946Z,12.86
2017-04-07T21:54:32.375Z,12.87
2017-04-07T21:59:28.674Z,12.78
2017-04-07T22:04:25.582Z,12.87
2017-04-07T22:09:22.944Z,12.76
2017-04-07T22:14:19.190Z,12.72
2017-04-07T22:19:15.905Z,12.68
2017-04-07T22:24:12.459Z,12.62
2017-04-07T22:29:08.723Z,12.73
2017-04-07T22:34:05.550Z,12.64
2017-04-07T22:39:01.753Z,12.60
2017-04-07T22:43:58.321Z,12.61
2017-04-07T22:48:55.070Z,12.54
2017-04-07T22:53:51.193Z,12.45
2017-04-07T22:58:47.950Z,12.46
2017-04-07T23:03:44.215Z,12.40
2017-04-07T23:08:40.852Z,12.28
2017-04-07T23:13:38.199Z,12.36
2017-04-07T23:18:35.913Z,12.31
2017-04-07T23:23:32.014Z,12.28
2017-04-07T23:28:29.611Z,12.28
2017-04-07T23:38:25.982Z,12.10
2017-04-07T23:43:22.178Z,12.06
2017-04-07T23:48:18.848Z,12.06
2017-04-07T23:53:15.155Z,12.15
2017-04-07T23:58:11.544Z,12.17
